Time;durP1;ratioP1;P1;durP2;ratioP2;P2;SDS_P1;SDS_P2;PMS_P1;PMS_P2;Temp;Humidity;BMP_temperature;BMP_pressure;BME280_temperature;BME280_humidity;BME280_pressure;Samples;Min_cycle;Max_cycle;Signal;HPM_P1;HPM_P2
2023/09/13 00:00:17;;;;;;;20.77;19.17;;;18.70;88.70;;;;;;6177469;28;20191;-64
2023/09/13 00:03:18;;;;;;;21.77;19.87;;;18.70;88.80;;;;;;6187669;28;20198;-64
2023/09/13 00:06:18;;;;;;;22.33;20.30;;;18.70;88.90;;;;;;6201587;28;20290;-64
2023/09/13 00:09:19;;;;;;;21.83;19.87;;;18.80;89.40;;;;;;6224186;28;20227;-64
2023/09/13 00:12:20;;;;;;;22.63;20.63;;;18.80;89.00;;;;;;6206036;28;20193;-64
2023/09/13 00:15:21;;;;;;;21.20;19.40;;;18.70;89.10;;;;;;6201758;28;20187;-64
2023/09/13 00:18:21;;;;;;;23.67;21.47;;;18.70;88.80;;;;;;6172816;28;20195;-64
2023/09/13 00:21:22;;;;;;;22.43;20.17;;;18.70;89.40;;;;;;6205767;28;20195;-64
2023/09/13 00:24:23;;;;;;;22.83;20.73;;;18.70;88.90;;;;;;6171768;28;20244;-64
2023/09/13 00:27:23;;;;;;;23.73;21.67;;;18.70;89.00;;;;;;6205709;28;20222;-64
2023/09/13 00:30:24;;;;;;;22.20;20.33;;;18.70;89.00;;;;;;6209009;28;20239;-64
2023/09/13 00:33:25;;;;;;;21.10;19.17;;;18.70;89.20;;;;;;6207887;28;20196;-64
2023/09/13 00:36:25;;;;;;;20.83;19.03;;;18.70;89.00;;;;;;6211834;28;20194;-64
2023/09/13 00:39:26;;;;;;;20.83;19.03;;;18.60;88.80;;;;;;6191355;28;20245;-64
2023/09/13 00:42:28;;;;;;;22.90;20.77;;;18.60;89.50;;;;;;6184419;28;20302;-64
2023/09/13 00:45:32;;;;;;;22.03;20.20;;;18.60;89.10;;;;;;6210399;28;20199;-64
2023/09/13 00:48:35;;;;;;;23.47;21.30;;;18.60;89.70;;;;;;6222269;28;20210;-64
2023/09/13 00:51:35;;;;;;;22.77;20.87;;;18.60;90.30;;;;;;6209447;28;20192;-64
2023/09/13 00:54:36;;;;;;;21.57;19.63;;;18.60;89.90;;;;;;6189627;28;20187;-64
2023/09/13 00:57:37;;;;;;;22.60;20.67;;;18.60;89.80;;;;;;6188747;28;20189;-64
2023/09/13 01:00:39;;;;;;;22.80;20.87;;;18.60;89.80;;;;;;6179145;28;20222;-64
2023/09/13 01:03:41;;;;;;;22.63;20.57;;;18.60;90.10;;;;;;6195654;28;20198;-64
2023/09/13 01:06:42;;;;;;;23.53;21.43;;;18.60;90.10;;;;;;6188890;28;20230;-64
2023/09/13 01:09:42;;;;;;;22.63;20.63;;;18.60;90.90;;;;;;6199921;28;20215;-64
2023/09/13 01:12:43;;;;;;;22.93;20.93;;;18.50;90.60;;;;;;6186314;28;20189;-64
2023/09/13 01:16:04;;;;;;;21.87;20.07;;;18.50;90.80;;;;;;6207876;28;20197;-64
2023/09/13 01:19:35;;;;;;;22.27;20.13;;;18.60;90.10;;;;;;6223841;28;20206;-64
2023/09/13 01:23:10;;;;;;;23.57;21.10;;;18.50;90.60;;;;;;6209216;28;20192;-64
2023/09/13 01:26:20;;;;;;;22.63;20.67;;;18.50;90.70;;;;;;6231363;28;20226;-64
2023/09/13 01:29:23;;;;;;;22.80;20.90;;;18.50;91.10;;;;;;6224005;28;20314;-64
2023/09/13 01:32:24;;;;;;;23.27;21.30;;;18.50;91.10;;;;;;6209348;28;20188;-64
2023/09/13 01:35:25;;;;;;;23.27;21.07;;;18.50;90.70;;;;;;6186129;28;20230;-64
2023/09/13 01:38:26;;;;;;;22.97;20.90;;;18.50;90.40;;;;;;6186463;28;20203;-64
2023/09/13 01:41:48;;;;;;;24.30;22.20;;;18.50;90.40;;;;;;6184863;28;20254;-64
2023/09/13 01:44:50;;;;;;;24.37;22.17;;;18.50;91.20;;;;;;6211951;28;20225;-64
2023/09/13 01:47:52;;;;;;;22.47;20.47;;;18.50;91.40;;;;;;6204366;28;20194;-65
2023/09/13 01:50:53;;;;;;;23.27;21.07;;;18.50;90.80;;;;;;6204361;28;20211;-64
2023/09/13 01:53:57;;;;;;;22.23;20.23;;;18.50;90.40;;;;;;6198935;28;20186;-64
2023/09/13 01:56:57;;;;;;;22.43;20.47;;;18.40;90.10;;;;;;6195196;28;20207;-64
2023/09/13 01:59:58;;;;;;;23.03;21.03;;;18.40;90.30;;;;;;6204808;28;20199;-64
2023/09/13 02:02:59;;;;;;;21.53;19.73;;;18.40;90.40;;;;;;6219383;28;20203;-64
2023/09/13 02:05:59;;;;;;;23.30;21.30;;;18.40;90.10;;;;;;6190305;28;20234;-64
2023/09/13 02:09:00;;;;;;;23.27;21.17;;;18.30;90.20;;;;;;6187837;28;20212;-64
2023/09/13 02:12:01;;;;;;;23.50;21.33;;;18.30;90.70;;;;;;6189635;28;20210;-64
2023/09/13 02:15:01;;;;;;;23.43;21.13;;;18.30;90.80;;;;;;6193670;28;20187;-64
2023/09/13 02:18:02;;;;;;;23.43;21.43;;;18.30;90.80;;;;;;6199873;28;20222;-64
2023/09/13 02:21:03;;;;;;;24.10;22.00;;;18.30;90.60;;;;;;6195283;28;20198;-64
2023/09/13 02:24:05;;;;;;;25.30;23.03;;;18.20;90.90;;;;;;6202411;28;20241;-64
2023/09/13 02:27:06;;;;;;;23.37;21.30;;;18.20;91.20;;;;;;6214538;28;20188;-64
2023/09/13 02:30:07;;;;;;;24.20;21.80;;;18.20;90.80;;;;;;6172866;28;20231;-64
2023/09/13 02:33:07;;;;;;;22.67;20.77;;;18.20;91.30;;;;;;6181910;28;20275;-64
2023/09/13 02:36:08;;;;;;;23.13;21.13;;;18.20;90.60;;;;;;6198238;28;20209;-64
2023/09/13 02:39:32;;;;;;;22.63;20.70;;;18.10;90.80;;;;;;6202851;28;20292;-64
2023/09/13 02:42:33;;;;;;;24.07;21.90;;;18.10;90.90;;;;;;6236098;28;20196;-64
2023/09/13 02:45:34;;;;;;;24.83;22.53;;;18.20;91.20;;;;;;6189855;28;20237;-64
2023/09/13 02:48:36;;;;;;;23.07;20.97;;;18.20;91.40;;;;;;6201710;28;20222;-64
2023/09/13 02:51:37;;;;;;;24.20;21.83;;;18.20;91.10;;;;;;6223577;28;20196;-64
2023/09/13 02:54:37;;;;;;;22.67;20.77;;;18.20;91.10;;;;;;6188211;28;20212;-64
2023/09/13 02:57:38;;;;;;;22.27;20.47;;;18.20;91.10;;;;;;6186367;28;20191;-64
2023/09/13 03:00:43;;;;;;;22.97;20.93;;;18.20;91.60;;;;;;6195599;28;20191;-65
2023/09/13 03:03:43;;;;;;;24.37;22.17;;;18.30;92.00;;;;;;6213803;28;20288;-64
2023/09/13 03:06:44;;;;;;;23.67;21.50;;;18.30;91.90;;;;;;6205365;28;20191;-64
2023/09/13 03:09:46;;;;;;;24.23;22.23;;;18.40;92.20;;;;;;6194162;28;20218;-64
2023/09/13 03:12:46;;;;;;;23.03;21.03;;;18.40;92.30;;;;;;6209834;28;20192;-64
2023/09/13 03:15:47;;;;;;;25.83;23.33;;;18.40;92.10;;;;;;6179863;28;20201;-64
2023/09/13 03:18:50;;;;;;;23.93;21.80;;;18.40;92.20;;;;;;6199635;28;20195;-64
2023/09/13 03:21:51;;;;;;;25.27;22.70;;;18.40;92.20;;;;;;6192541;28;20196;-64
2023/09/13 03:24:52;;;;;;;24.50;22.40;;;18.50;92.20;;;;;;6185848;28;20230;-65
2023/09/13 03:27:52;;;;;;;23.30;21.10;;;18.40;92.00;;;;;;6204477;28;20283;-64
2023/09/13 03:30:54;;;;;;;25.43;22.97;;;18.50;92.10;;;;;;6180256;28;20239;-64
2023/09/13 03:33:57;;;;;;;26.10;23.60;;;18.50;92.50;;;;;;6173351;28;20195;-64
2023/09/13 03:36:57;;;;;;;23.77;21.73;;;18.50;92.70;;;;;;6223272;28;20214;-64
2023/09/13 03:39:58;;;;;;;25.50;23.17;;;18.50;92.40;;;;;;6179699;28;20202;-64
2023/09/13 03:42:59;;;;;;;25.73;23.43;;;18.50;92.40;;;;;;6200295;28;20230;-64
2023/09/13 03:46:00;;;;;;;24.17;21.77;;;18.60;91.90;;;;;;6196467;28;20205;-64
2023/09/13 03:49:01;;;;;;;23.73;21.43;;;18.60;91.40;;;;;;6218341;28;20294;-64
2023/09/13 03:52:02;;;;;;;25.27;22.93;;;18.60;91.40;;;;;;6184886;28;20191;-64
2023/09/13 03:55:04;;;;;;;24.03;21.93;;;18.60;91.70;;;;;;6197808;28;20197;-65
2023/09/13 03:58:04;;;;;;;23.80;21.60;;;18.60;91.80;;;;;;6195629;28;20192;-63
2023/09/13 04:01:06;;;;;;;24.63;22.43;;;18.60;91.50;;;;;;6199512;28;20199;-64
2023/09/13 04:04:07;;;;;;;25.33;23.03;;;18.60;91.80;;;;;;6188488;28;20226;-65
2023/09/13 04:07:07;;;;;;;25.10;22.87;;;18.60;91.70;;;;;;6184464;28;20191;-65
2023/09/13 04:10:08;;;;;;;25.30;23.10;;;18.60;92.00;;;;;;6192244;28;20216;-65
2023/09/13 04:13:09;;;;;;;24.57;22.43;;;18.60;91.90;;;;;;6192973;28;20194;-64
2023/09/13 04:16:14;;;;;;;23.97;21.93;;;18.60;91.60;;;;;;6204870;28;20199;-63
2023/09/13 04:19:15;;;;;;;24.03;21.83;;;18.60;91.80;;;;;;6213144;28;20195;-63
2023/09/13 04:22:16;;;;;;;24.73;22.53;;;18.60;91.70;;;;;;6202154;28;20195;-64
2023/09/13 04:25:18;;;;;;;24.37;22.03;;;18.60;91.40;;;;;;6200343;28;20227;-66
2023/09/13 04:28:18;;;;;;;24.03;21.83;;;18.60;91.60;;;;;;6193889;28;20195;-64
2023/09/13 04:31:19;;;;;;;24.67;22.33;;;18.60;91.20;;;;;;6195785;28;20187;-64
2023/09/13 04:34:20;;;;;;;23.90;21.57;;;18.50;91.60;;;;;;6193187;28;20198;-64
2023/09/13 04:37:21;;;;;;;23.57;21.27;;;18.50;91.40;;;;;;6216907;28;20194;-64
2023/09/13 04:40:21;;;;;;;24.43;22.13;;;18.50;91.80;;;;;;6179655;28;20199;-63
2023/09/13 04:43:23;;;;;;;24.87;22.67;;;18.50;91.70;;;;;;6221884;28;20249;-63
2023/09/13 04:46:24;;;;;;;25.13;22.67;;;18.50;91.70;;;;;;6193341;28;20282;-63
2023/09/13 04:49:25;;;;;;;23.50;21.40;;;18.50;91.90;;;;;;6169931;28;20221;-64
2023/09/13 04:52:26;;;;;;;25.07;22.77;;;18.60;91.50;;;;;;6169014;28;20192;-63
2023/09/13 04:55:26;;;;;;;23.03;20.73;;;18.60;91.90;;;;;;6205737;28;20321;-64
2023/09/13 04:58:28;;;;;;;25.13;22.93;;;18.60;91.70;;;;;;6188256;28;20196;-64
2023/09/13 05:01:28;;;;;;;23.93;21.70;;;18.60;91.80;;;;;;6193298;28;20198;-64
2023/09/13 05:04:29;;;;;;;25.07;22.90;;;18.60;92.00;;;;;;6207725;28;20200;-63
2023/09/13 05:07:30;;;;;;;22.83;20.83;;;18.60;91.80;;;;;;6201233;28;20193;-63
2023/09/13 05:10:31;;;;;;;23.20;21.20;;;18.60;91.80;;;;;;6198900;28;20223;-64
2023/09/13 05:13:32;;;;;;;22.63;20.80;;;18.70;91.80;;;;;;6204265;28;20232;-64
2023/09/13 05:16:33;;;;;;;23.07;21.13;;;18.70;92.20;;;;;;6190859;28;20275;-64
2023/09/13 05:19:34;;;;;;;23.30;20.83;;;18.70;92.40;;;;;;6203621;28;20191;-64
2023/09/13 05:22:34;;;;;;;23.20;21.10;;;18.70;92.40;;;;;;6189005;28;20273;-63
2023/09/13 05:25:43;;;;;;;24.47;22.20;;;18.70;92.30;;;;;;6181027;28;20292;-63
2023/09/13 05:28:45;;;;;;;23.07;21.13;;;18.70;92.50;;;;;;6184030;28;20229;-63
2023/09/13 05:31:46;;;;;;;23.53;21.33;;;18.70;92.60;;;;;;6204921;28;20179;-64
2023/09/13 05:34:46;;;;;;;23.27;20.93;;;18.80;92.90;;;;;;6188910;28;20192;-63
2023/09/13 05:37:47;;;;;;;24.77;22.37;;;18.80;92.80;;;;;;6193449;28;20187;-64
2023/09/13 05:40:48;;;;;;;23.50;21.40;;;18.80;93.00;;;;;;6178671;28;20206;-64
2023/09/13 05:43:48;;;;;;;22.63;20.63;;;18.80;93.00;;;;;;6209316;28;20182;-64
2023/09/13 05:46:51;;;;;;;24.33;21.97;;;18.80;93.20;;;;;;6185758;28;20202;-63
2023/09/13 05:49:52;;;;;;;23.40;21.13;;;18.80;93.00;;;;;;6215802;28;20212;-63
2023/09/13 05:52:54;;;;;;;24.23;21.83;;;18.80;92.80;;;;;;6196072;28;20191;-64
2023/09/13 05:55:54;;;;;;;23.83;21.67;;;18.80;92.90;;;;;;6199747;28;20191;-64
2023/09/13 05:58:55;;;;;;;23.80;21.67;;;18.90;92.50;;;;;;6188778;28;20270;-64
2023/09/13 06:01:56;;;;;;;24.17;21.97;;;18.80;92.70;;;;;;6172641;28;20196;-63
2023/09/13 06:04:56;;;;;;;25.77;23.47;;;18.80;92.70;;;;;;6183269;28;20189;-64
2023/09/13 06:07:57;;;;;;;24.40;22.07;;;18.90;93.00;;;;;;6175083;28;20262;-64
2023/09/13 06:10:58;;;;;;;24.10;22.07;;;19.00;93.00;;;;;;6200876;28;20230;-64
2023/09/13 06:13:58;;;;;;;23.43;21.40;;;19.00;93.00;;;;;;6193097;28;20262;-64
2023/09/13 06:16:59;;;;;;;24.60;22.30;;;19.00;93.20;;;;;;6196816;28;20184;-63
2023/09/13 06:20:00;;;;;;;23.00;21.00;;;19.10;93.20;;;;;;6193576;28;20222;-64
2023/09/13 06:23:01;;;;;;;24.10;21.80;;;19.10;93.30;;;;;;6187483;28;20198;-64
2023/09/13 06:26:02;;;;;;;23.53;21.33;;;19.20;93.70;;;;;;6193043;28;20191;-64
2023/09/13 06:29:03;;;;;;;23.13;21.13;;;19.30;93.60;;;;;;6193038;28;20215;-64
2023/09/13 06:32:04;;;;;;;23.10;21.00;;;19.30;93.00;;;;;;6177359;28;20253;-64
2023/09/13 06:35:05;;;;;;;22.90;20.93;;;19.40;92.40;;;;;;6201535;28;20190;-64
2023/09/13 06:38:06;;;;;;;23.03;20.83;;;19.50;92.40;;;;;;6210670;28;20205;-64
2023/09/13 06:41:07;;;;;;;23.43;21.23;;;19.50;90.90;;;;;;6193533;28;20187;-64
2023/09/13 06:44:09;;;;;;;24.03;21.40;;;19.50;90.60;;;;;;6218677;28;20187;-64
2023/09/13 06:47:10;;;;;;;23.97;21.77;;;19.50;91.00;;;;;;6197729;28;20193;-64
2023/09/13 06:50:10;;;;;;;25.07;22.47;;;19.50;90.90;;;;;;6192878;28;20215;-63
2023/09/13 06:53:11;;;;;;;23.13;21.00;;;19.50;91.00;;;;;;6199300;28;20270;-64
2023/09/13 06:56:12;;;;;;;22.60;20.63;;;19.50;91.00;;;;;;6207175;28;20189;-64
2023/09/13 06:59:12;;;;;;;23.33;21.13;;;19.50;91.10;;;;;;6193322;28;20195;-64
2023/09/13 07:02:13;;;;;;;24.37;21.97;;;19.50;91.10;;;;;;6180806;28;20187;-64
2023/09/13 07:05:14;;;;;;;24.37;22.17;;;19.40;90.70;;;;;;6185203;28;20194;-64
2023/09/13 07:08:14;;;;;;;24.00;21.70;;;19.40;91.20;;;;;;6187785;28;20192;-64
2023/09/13 07:11:18;;;;;;;24.03;21.77;;;19.40;91.20;;;;;;6203265;28;20184;-64
2023/09/13 07:14:19;;;;;;;23.90;21.60;;;19.40;91.20;;;;;;6207282;28;20213;-64
2023/09/13 07:17:19;;;;;;;24.50;21.90;;;19.40;91.60;;;;;;6172160;28;20174;-64
2023/09/13 07:20:20;;;;;;;24.13;21.70;;;19.40;91.90;;;;;;6196204;28;20202;-64
2023/09/13 07:23:21;;;;;;;22.67;20.43;;;19.50;90.30;;;;;;6189609;28;20239;-64
2023/09/13 07:26:22;;;;;;;22.67;20.53;;;19.50;90.10;;;;;;6201206;28;20190;-63
2023/09/13 07:29:22;;;;;;;22.53;20.33;;;19.50;89.60;;;;;;6183154;28;20211;-64
2023/09/13 07:32:23;;;;;;;22.53;20.30;;;19.50;89.00;;;;;;6195345;28;20194;-63
2023/09/13 07:35:24;;;;;;;22.33;20.23;;;19.60;89.20;;;;;;6186240;28;20273;-63
2023/09/13 07:38:24;;;;;;;22.27;20.17;;;19.70;88.90;;;;;;6196407;28;20183;-64
2023/09/13 07:41:26;;;;;;;20.83;19.10;;;19.70;88.50;;;;;;6208412;28;20205;-64
2023/09/13 07:44:26;;;;;;;20.83;19.00;;;19.80;88.40;;;;;;6186141;28;20233;-64
2023/09/13 07:47:28;;;;;;;19.93;17.93;;;19.90;88.00;;;;;;6185725;28;20277;-64
2023/09/13 07:50:42;;;;;;;20.97;18.90;;;20.00;87.10;;;;;;6206985;28;20238;-64
2023/09/13 07:53:44;;;;;;;22.40;20.30;;;20.10;86.80;;;;;;6217658;28;20211;-64
2023/09/13 07:56:44;;;;;;;20.37;18.33;;;20.30;86.70;;;;;;6195435;28;20262;-64
2023/09/13 07:59:45;;;;;;;19.13;17.47;;;20.30;86.00;;;;;;6187687;28;20216;-64
2023/09/13 08:02:46;;;;;;;20.70;18.90;;;20.40;85.50;;;;;;6172898;28;20191;-64
2023/09/13 08:05:47;;;;;;;19.30;17.50;;;;;;;;;;6206274;28;20187;-64
2023/09/13 08:08:52;;;;;;;19.30;17.30;;;24.00;50.00;;;;;;6217471;28;20299;-64
2023/09/13 08:11:53;;;;;;;18.87;16.87;;;;;;;;;;6204790;28;20228;-64
2023/09/13 08:14:54;;;;;;;19.10;17.37;;;;;;;;;;6207226;28;20195;-64
2023/09/13 08:17:55;;;;;;;19.23;17.40;;;;;;;;;;6207058;28;20233;-64
2023/09/13 08:20:56;;;;;;;18.43;16.73;;;;;;;;;;6217710;28;20191;-64
2023/09/13 08:23:57;;;;;;;18.13;16.63;;;;;;;;;;6205927;28;20321;-64
2023/09/13 08:26:58;;;;;;;17.60;16.10;;;;;;;;;;6206041;28;20286;-64
2023/09/13 08:29:59;;;;;;;18.63;17.03;;;;;;;;;;6210742;28;20211;-64
2023/09/13 08:33:00;;;;;;;17.93;16.20;;;;;;;;;;6213839;28;20195;-64
2023/09/13 08:36:02;;;;;;;18.97;17.17;;;;;;;;;;6207650;28;20191;-64
2023/09/13 08:39:05;;;;;;;17.90;16.10;;;;;;;;;;6208639;28;20202;-64
2023/09/13 08:42:06;;;;;;;17.63;15.93;;;;;;;;;;6216969;28;20192;-64
2023/09/13 08:45:07;;;;;;;17.13;15.57;;;;;;;;;;6202304;28;20206;-64
2023/09/13 08:48:09;;;;;;;17.43;15.80;;;;;;;;;;6197981;28;20195;-64
2023/09/13 08:51:12;;;;;;;18.30;16.60;;;20.80;84.40;;;;;;6217339;28;20218;-64
2023/09/13 08:54:17;;;;;;;17.73;16.17;;;22.10;80.20;;;;;;6206000;28;20183;-64
2023/09/13 08:57:20;;;;;;;18.30;16.70;;;22.20;80.40;;;;;;6215937;28;20188;-64
2023/09/13 09:00:21;;;;;;;19.97;18.07;;;22.20;79.40;;;;;;6186210;28;20261;-64
2023/09/13 09:03:24;;;;;;;19.40;17.67;;;22.20;76.40;;;;;;6206902;28;20216;-64
2023/09/13 09:06:25;;;;;;;19.70;17.50;;;22.30;76.50;;;;;;6219390;28;20187;-64
2023/09/13 09:09:31;;;;;;;20.23;18.27;;;;;;;;;;6198049;28;20265;-64
2023/09/13 09:12:32;;;;;;;19.90;17.97;;;;;;;;;;6204825;28;20197;-64
2023/09/13 09:15:34;;;;;;;19.33;17.43;;;;;;;;;;6207740;28;20278;-64
2023/09/13 09:18:37;;;;;;;18.67;17.07;;;;;;;;;;6217649;28;20184;-64
2023/09/13 09:21:39;;;;;;;19.10;17.37;;;;;;;;;;6222307;28;20183;-64
2023/09/13 09:24:40;;;;;;;18.47;16.97;;;;;;;;;;6207102;28;20318;-64
2023/09/13 09:27:42;;;;;;;21.30;19.07;;;;;;;;;;6227971;28;20188;-64
2023/09/13 09:30:45;;;;;;;20.43;18.23;;;;;;;;;;6219672;28;20211;-64
2023/09/13 09:33:46;;;;;;;20.23;18.43;;;;;;;;;;6210049;28;20362;-64
2023/09/13 09:36:48;;;;;;;21.47;19.37;;;;;;;;;;6199497;28;20188;-64
2023/09/13 09:39:49;;;;;;;18.97;17.00;;;;;;;;;;6198830;28;20226;-64
2023/09/13 09:42:56;;;;;;;20.93;16.83;;;;;;;;;;6214363;28;20183;-64
2023/09/13 09:45:57;;;;;;;18.90;17.10;;;;;;;;;;6201207;28;20275;-64
2023/09/13 09:48:59;;;;;;;18.40;16.50;;;;;;;;;;6209265;28;20278;-64
2023/09/13 09:52:00;;;;;;;19.03;17.23;;;;;;;;;;6215836;28;20194;-64
2023/09/13 09:55:04;;;;;;;19.03;17.13;;;;;;;;;;6215409;28;20190;-64
2023/09/13 09:58:05;;;;;;;18.23;16.10;;;;;;;;;;6221915;28;20385;-64
2023/09/13 10:01:06;;;;;;;19.40;17.67;;;;;;;;;;6218363;28;20203;-64
2023/09/13 10:04:08;;;;;;;19.13;17.43;;;;;;;;;;6206109;28;20207;-64
2023/09/13 10:07:09;;;;;;;18.47;16.90;;;;;;;;;;6203208;28;20227;-64
2023/09/13 10:10:27;;;;;;;21.07;16.63;;;;;;;;;;6199398;28;20222;-64
2023/09/13 10:13:31;;;;;;;17.27;15.47;;;22.50;76.00;;;;;;6218732;28;20279;-64
2023/09/13 10:16:33;;;;;;;16.97;15.37;;;24.40;67.80;;;;;;6194474;28;20202;-64
2023/09/13 10:19:34;;;;;;;16.43;14.93;;;24.40;69.20;;;;;;6189542;28;20183;-64
2023/09/13 10:22:37;;;;;;;17.10;15.10;;;24.40;67.00;;;;;;6207845;28;20187;-64
2023/09/13 10:25:39;;;;;;;17.53;16.03;;;24.70;65.70;;;;;;6218536;28;20223;-64
2023/09/13 10:28:44;;;;;;;16.00;14.40;;;24.80;66.80;;;;;;6190903;28;20219;-64
2023/09/13 10:31:46;;;;;;;16.20;14.60;;;25.00;66.50;;;;;;6209082;28;20181;-64
2023/09/13 10:34:52;;;;;;;14.67;13.23;;;25.20;64.40;;;;;;6218670;28;20246;-64
2023/09/13 10:38:09;;;;;;;16.30;14.67;;;25.30;64.50;;;;;;6213441;28;20219;-64
2023/09/13 10:41:17;;;;;;;14.53;13.20;;;25.40;63.70;;;;;;6234973;28;20283;-64
2023/09/13 10:44:19;;;;;;;15.73;14.33;;;;;;;;;;6221768;28;20249;-64
2023/09/13 10:47:20;;;;;;;16.20;14.90;;;;;;;;;;6207791;28;20226;-64
2023/09/13 10:50:21;;;;;;;14.33;13.10;;;;;;;;;;6207122;28;20257;-64
2023/09/13 10:53:23;;;;;;;15.93;14.63;;;;;;;;;;6224429;28;20191;-64
2023/09/13 10:56:24;;;;;;;15.37;13.97;;;;;;;;;;6203866;28;20287;-64
2023/09/13 10:59:26;;;;;;;16.10;14.50;;;;;;;;;;6200988;28;20195;-64
2023/09/13 11:02:27;;;;;;;14.67;13.37;;;;;;;;;;6209457;28;20176;-64
2023/09/13 11:05:29;;;;;;;15.43;13.87;;;;;;;;;;6210462;28;20194;-64
2023/09/13 11:08:33;;;;;;;15.23;13.73;;;;;;;;;;6220320;28;20286;-64
2023/09/13 11:11:35;;;;;;;15.57;14.17;;;25.60;65.40;;;;;;6209657;28;20229;-64
2023/09/13 11:14:36;;;;;;;15.57;14.27;;;;;;;;;;6220983;28;20191;-64
2023/09/13 11:17:39;;;;;;;16.97;15.20;;;24.00;50.00;;;;;;6208349;28;20188;-64
2023/09/13 11:20:41;;;;;;;15.90;14.57;;;26.40;63.10;;;;;;6209296;28;20210;-64
2023/09/13 11:23:49;;;;;;;16.23;14.70;;;26.40;62.40;;;;;;6195215;28;20247;-64
2023/09/13 11:26:54;;;;;;;16.67;14.37;;;26.70;64.10;;;;;;6222451;28;20184;-64
2023/09/13 11:29:59;;;;;;;15.67;14.10;;;26.90;62.20;;;;;;6219971;28;20215;-64
2023/09/13 11:33:00;;;;;;;16.23;14.87;;;27.10;62.20;;;;;;6223190;28;20187;-64
2023/09/13 11:36:01;;;;;;;14.60;13.30;;;27.40;63.00;;;;;;6199993;28;20198;-64
2023/09/13 11:39:05;;;;;;;15.27;14.03;;;27.50;64.00;;;;;;6194341;28;20207;-64
2023/09/13 11:42:09;;;;;;;16.17;14.87;;;27.70;63.80;;;;;;6202082;28;20191;-65
2023/09/13 11:45:10;;;;;;;35.63;26.40;;;28.00;61.30;;;;;;6220980;28;20217;-63
2023/09/13 11:48:12;;;;;;;27.50;21.93;;;28.00;62.00;;;;;;6219959;28;20221;-64
2023/09/13 11:51:14;;;;;;;23.77;17.63;;;28.00;60.50;;;;;;6226008;28;20211;-63
2023/09/13 11:54:16;;;;;;;25.10;19.37;;;28.00;60.00;;;;;;6195939;28;20187;-64
2023/09/13 11:57:19;;;;;;;51.33;34.23;;;27.90;61.30;;;;;;6189733;28;20188;-64
2023/09/13 12:00:22;;;;;;;17.90;16.10;;;27.90;59.70;;;;;;6192748;28;20198;-64
2023/09/13 12:03:22;;;;;;;20.60;18.37;;;28.10;58.00;;;;;;6192171;28;20210;-64
2023/09/13 12:06:23;;;;;;;17.33;15.67;;;28.30;57.80;;;;;;6187894;28;20188;-64
2023/09/13 12:09:24;;;;;;;14.87;13.40;;;28.40;56.60;;;;;;6213942;28;20215;-64
2023/09/13 12:12:26;;;;;;;20.53;15.87;;;;;;;;;;6189012;28;20188;-65
2023/09/13 12:15:27;;;;;;;34.67;26.67;;;;;;;;;;6209324;28;20184;-64
2023/09/13 12:18:30;;;;;;;16.80;15.20;;;;;;;;;;6224628;28;20183;-64
2023/09/13 12:21:31;;;;;;;18.60;15.57;;;;;;;;;;6206658;28;20184;-64
2023/09/13 12:24:32;;;;;;;14.43;13.10;;;33.00;49.40;;;;;;6201486;28;20235;-65
2023/09/13 12:27:33;;;;;;;12.80;11.60;;;;;;;;;;6173613;28;20199;-65
2023/09/13 12:30:34;;;;;;;12.50;11.23;;;;;;;;;;6200357;28;20211;-65
2023/09/13 12:33:35;;;;;;;11.77;10.67;;;;;;;;;;6199636;28;20198;-65
2023/09/13 12:36:36;;;;;;;12.70;11.40;;;36.50;41.90;;;;;;6203532;28;20248;-66
2023/09/13 12:39:36;;;;;;;11.30;10.30;;;36.70;42.50;;;;;;6186651;28;20197;-66
2023/09/13 12:42:38;;;;;;;11.03;10.03;;;36.40;42.30;;;;;;6202732;28;20189;-65
2023/09/13 12:45:40;;;;;;;11.57;10.67;;;15.60;42.80;;;;;;6189175;28;20192;-66
2023/09/13 12:48:42;;;;;;;11.73;10.73;;;35.40;45.70;;;;;;6177722;28;20199;-65
2023/09/13 12:51:43;;;;;;;14.20;11.47;;;;;;;;;;6222038;28;20186;-66
2023/09/13 12:54:45;;;;;;;12.00;11.10;;;;;;;;;;6201892;28;20188;-66
2023/09/13 12:57:46;;;;;;;12.40;11.17;;;;;;;;;;6206680;28;20207;-66
2023/09/13 13:00:49;;;;;;;11.47;10.57;;;;;;;;;;6200789;28;20202;-66
2023/09/13 13:03:55;;;;;;;11.73;10.80;;;;;;;;;;6205598;28;20180;-66
2023/09/13 13:06:59;;;;;;;11.27;10.27;;;;;;;;;;6213156;28;20242;-65
2023/09/13 13:10:04;;;;;;;11.00;10.13;;;35.00;43.30;;;;;;6205311;28;20223;-66
2023/09/13 13:13:05;;;;;;;9.83;9.13;;;36.20;42.00;;;;;;6187592;28;20184;-65
2023/09/13 13:16:16;;;;;;;11.50;10.03;;;36.90;40.90;;;;;;6201993;28;20187;-65
2023/09/13 13:19:29;;;;;;;11.00;10.07;;;36.70;41.60;;;;;;6201998;28;20265;-65
2023/09/13 13:22:31;;;;;;;11.27;10.30;;;;;;;;;;6222387;28;20187;-65
2023/09/13 13:25:32;;;;;;;11.63;10.63;;;;;;;;;;6238394;28;20230;-64
2023/09/13 13:28:32;;;;;;;12.53;11.33;;;35.50;43.40;;;;;;6208550;28;20195;-64
2023/09/13 13:31:34;;;;;;;12.07;10.87;;;;;;;;;;6202396;28;20183;-65
2023/09/13 13:34:35;;;;;;;12.17;11.17;;;;;;;;;;6221951;28;20182;-64
2023/09/13 13:37:36;;;;;;;12.17;11.03;;;;;;;;;;6205206;28;20187;-64
2023/09/13 13:40:37;;;;;;;12.30;11.30;;;;;;;;;;6216718;28;20183;-64
2023/09/13 13:43:39;;;;;;;13.30;12.17;;;;;;;;;;6216897;28;20206;-64
2023/09/13 13:46:40;;;;;;;12.13;11.03;;;;;;;;;;6199186;28;20218;-64
2023/09/13 13:49:42;;;;;;;12.87;11.87;;;;;;;;;;6206935;28;20222;-64
2023/09/13 13:52:42;;;;;;;12.93;11.83;;;28.70;57.00;;;;;;6220806;28;20187;-64
2023/09/13 13:55:43;;;;;;;12.00;10.93;;;28.30;57.00;;;;;;6178195;28;20199;-64
2023/09/13 13:58:44;;;;;;;12.47;11.47;;;28.00;55.90;;;;;;6175277;28;20187;-64
2023/09/13 14:01:46;;;;;;;12.63;11.43;;;27.90;57.80;;;;;;6167591;28;20196;-64
2023/09/13 14:04:48;;;;;;;13.87;12.40;;;28.10;58.60;;;;;;6182772;28;20191;-64
2023/09/13 14:07:49;;;;;;;13.10;11.90;;;;;;;;;;6170495;28;20192;-64
2023/09/13 14:10:52;;;;;;;12.37;10.40;;;;;;;;;;6201302;28;20218;-64
2023/09/13 14:13:53;;;;;;;11.90;10.73;;;32.80;49.10;;;;;;6217599;28;20188;-63
2023/09/13 14:16:54;;;;;;;12.67;10.17;;;33.00;49.70;;;;;;6184354;28;20215;-64
2023/09/13 14:19:55;;;;;;;13.27;9.73;;;32.80;49.80;;;;;;6204043;28;20188;-70
2023/09/13 14:22:57;;;;;;;12.07;10.00;;;33.00;49.40;;;;;;6188047;28;20191;-67
2023/09/13 14:25:58;;;;;;;9.70;8.80;;;33.30;47.60;;;;;;6196267;28;20231;-67
2023/09/13 14:28:59;;;;;;;10.07;9.10;;;;;;;;;;6188814;28;20220;-67
2023/09/13 14:32:01;;;;;;;9.47;8.77;;;;;;;;;;6205760;28;20191;-69
2023/09/13 14:35:02;;;;;;;10.77;9.17;;;;;;;;;;6217282;28;20245;-62
2023/09/13 14:38:04;;;;;;;10.02;9.02;;;34.50;46.20;;;;;;6203964;28;20207;-64
2023/09/13 14:41:04;;;;;;;8.98;8.18;;;37.30;41.40;;;;;;6191619;28;20192;-66
2023/09/13 14:44:05;;;;;;;9.35;8.50;;;36.70;39.70;;;;;;6186624;28;20206;-66
2023/09/13 14:47:06;;;;;;;9.73;8.87;;;;;;;;;;6183975;28;20187;-66
2023/09/13 14:50:08;;;;;;;9.37;8.57;;;;;;;;;;6202538;28;20265;-66
2023/09/13 14:53:09;;;;;;;10.00;9.10;;;;;;;;;;6201586;28;20195;-66
2023/09/13 14:56:10;;;;;;;10.53;9.17;;;;;;;;;;6205810;28;20281;-65
2023/09/13 14:59:12;;;;;;;11.37;10.27;;;;;;;;;;6208222;28;20203;-65
2023/09/13 15:02:13;;;;;;;11.10;10.10;;;;;;;;;;6216616;28;20208;-65
2023/09/13 15:05:15;;;;;;;11.67;10.73;;;;;;;;;;6203870;28;20278;-66
2023/09/13 15:08:16;;;;;;;11.40;10.23;;;;;;;;;;6216062;28;20206;-66
2023/09/13 15:11:18;;;;;;;12.67;11.37;;;;;;;;;;6204820;28;20279;-65
2023/09/13 15:14:19;;;;;;;15.00;12.53;;;;;;;;;;6211566;28;20192;-66
2023/09/13 15:17:20;;;;;;;14.07;12.50;;;;;;;;;;6220359;28;20187;-65
2023/09/13 15:20:23;;;;;;;14.13;11.37;;;;;;;;;;6224271;28;20186;-66
2023/09/13 15:23:24;;;;;;;11.47;10.47;;;;;;;;;;6217663;28;20226;-66
2023/09/13 15:26:25;;;;;;;11.73;10.43;;;;;;;;;;6218978;28;20277;-66
2023/09/13 15:29:27;;;;;;;11.70;10.53;;;;;;;;;;6210212;28;20298;-66
2023/09/13 15:32:28;;;;;;;11.27;10.20;;;30.00;51.30;;;;;;6203555;28;20200;-66
2023/09/13 15:35:29;;;;;;;12.17;10.50;;;28.10;57.50;;;;;;6224696;28;20199;-66
2023/09/13 15:38:30;;;;;;;11.37;10.27;;;27.80;57.70;;;;;;6210134;28;20246;-66
2023/09/13 15:41:31;;;;;;;11.10;10.13;;;;;;;;;;6217685;28;20184;-64
2023/09/13 15:44:33;;;;;;;11.20;10.33;;;27.30;59.40;;;;;;6202930;28;20242;-63
2023/09/13 15:47:36;;;;;;;12.57;10.20;;;27.10;60.00;;;;;;6199832;28;20207;-66
2023/09/13 15:50:38;;;;;;;12.07;11.07;;;;;;;;;;6193336;28;20294;-65
2023/09/13 15:53:40;;;;;;;11.97;10.83;;;26.90;60.50;;;;;;6207750;28;20218;-66
2023/09/13 15:56:41;;;;;;;12.60;11.47;;;;;;;;;;6207095;28;20187;-67